Time;durP1;ratioP1;P1;durP2;ratioP2;P2;SDS_P1;SDS_P2;PMS_P1;PMS_P2;Temp;Humidity;BMP_temperature;BMP_pressure;BME280_temperature;BME280_humidity;BME280_pressure;Samples;Min_cycle;Max_cycle;Signal;HPM_P1;HPM_P2
2023/07/27 00:00:28;;;;;;;8.38;4.60;;;;;;;18.47;76.14;100852.13;5116263;28;20526;-64
2023/07/27 00:02:56;;;;;;;7.70;4.18;;;;;;;18.48;76.42;100851.03;5116606;28;20395;-62
2023/07/27 00:05:24;;;;;;;6.72;4.13;;;;;;;18.48;76.74;100862.06;5116933;28;20049;-63
2023/07/27 00:07:51;;;;;;;7.32;4.13;;;;;;;18.45;77.35;100857.19;5099563;28;20040;-64
2023/07/27 00:10:20;;;;;;;9.48;4.78;;;;;;;18.44;78.43;100858.31;5080360;28;20044;-62
2023/07/27 00:12:48;;;;;;;9.20;4.72;;;;;;;18.44;78.95;100861.06;5081362;28;20054;-62
2023/07/27 00:15:15;;;;;;;10.32;5.03;;;;;;;18.43;79.78;100856.69;5116661;28;20589;-64
2023/07/27 00:17:43;;;;;;;10.68;5.35;;;;;;;18.37;81.17;100861.53;5098353;28;20051;-63
2023/07/27 00:20:11;;;;;;;12.20;5.40;;;;;;;18.34;81.36;100869.63;5115157;28;20052;-62
2023/07/27 00:22:39;;;;;;;8.98;4.90;;;;;;;18.30;82.58;100866.69;5098396;28;20505;-62
2023/07/27 00:25:07;;;;;;;9.80;5.18;;;;;;;18.28;83.43;100866.22;5116071;28;20040;-62
2023/07/27 00:27:35;;;;;;;9.18;4.47;;;;;;;18.26;83.91;100865.72;5113334;28;20074;-62
2023/07/27 00:30:03;;;;;;;11.13;5.53;;;;;;;18.24;85.65;100867.97;5115711;28;20055;-62
2023/07/27 00:32:31;;;;;;;10.18;5.90;;;;;;;18.20;86.38;100858.72;5095674;28;20051;-64
2023/07/27 00:35:00;;;;;;;9.93;4.88;;;;;;;18.18;87.55;100855.44;5095770;28;20048;-62
2023/07/27 00:37:28;;;;;;;9.20;5.00;;;;;;;18.14;88.47;100855.28;5083720;28;20050;-62
2023/07/27 00:39:56;;;;;;;11.88;5.10;;;;;;;18.09;89.28;100856.25;5114475;28;20051;-68
2023/07/27 00:42:24;;;;;;;10.55;5.10;;;;;;;18.06;90.36;100851.38;5117339;28;20403;-62
2023/07/27 00:44:51;;;;;;;7.55;4.57;;;;;;;18.05;91.08;100851.69;5082023;28;20051;-61
2023/07/27 00:47:19;;;;;;;9.30;5.10;;;;;;;18.02;91.73;100849.56;5097691;28;20054;-62
2023/07/27 00:49:47;;;;;;;7.78;4.65;;;;;;;18.02;91.54;100839.34;5098125;28;20047;-61
2023/07/27 00:52:15;;;;;;;9.50;5.10;;;;;;;18.01;92.68;100836.88;5081063;28;20070;-61
2023/07/27 00:54:43;;;;;;;9.48;4.88;;;;;;;17.99;92.71;100833.63;5109582;28;20072;-62
2023/07/27 00:57:11;;;;;;;9.88;5.10;;;;;;;17.97;93.43;100830.41;5070968;28;20047;-61
2023/07/27 00:59:40;;;;;;;10.18;4.68;;;;;;;17.96;93.97;100828.75;5095578;28;20050;-62
2023/07/27 01:02:08;;;;;;;10.32;4.47;;;;;;;17.93;94.71;100819.19;5080755;28;20055;-63
2023/07/27 01:04:36;;;;;;;7.32;3.97;;;;;;;17.93;94.51;100812.88;5096950;28;20502;-63
2023/07/27 01:07:04;;;;;;;9.00;4.50;;;;;;;17.94;95.19;100814.47;5115383;28;20510;-62
2023/07/27 01:09:32;;;;;;;10.57;5.20;;;;;;;17.93;95.46;100807.34;5114548;28;20051;-65
2023/07/27 01:12:07;;;;;;;11.20;4.82;;;;;;;17.93;95.94;100807.34;5095319;28;20054;-63
2023/07/27 01:15:00;;;;;;;8.10;4.78;;;;;;;17.91;96.31;100804.09;5097608;28;20043;-65
2023/07/27 01:17:51;;;;;;;7.60;4.63;;;;;;;17.88;96.02;100800.84;5102128;28;20060;-63
2023/07/27 01:20:46;;;;;;;8.25;4.97;;;;;;;17.86;97.38;100800.34;5095689;28;20062;-61
2023/07/27 01:23:51;;;;;;;9.10;4.85;;;;;;;17.86;95.84;100788.50;5098041;28;20442;-66
2023/07/27 01:26:53;;;;;;;8.20;4.55;;;;;;;17.87;95.18;100787.38;5097725;28;20056;-65
2023/07/27 01:29:58;;;;;;;9.80;4.65;;;;;;;17.85;96.66;100776.69;5103666;28;20413;-64
2023/07/27 01:32:29;;;;;;;7.47;4.22;;;;;;;17.86;98.46;100777.47;5060378;28;20047;-61
2023/07/27 01:35:00;;;;;;;6.90;4.40;;;;;;;17.86;98.51;100774.72;5060528;28;20074;-61
2023/07/27 01:37:29;;;;;;;11.13;4.88;;;;;;;17.85;99.80;100770.38;5097742;28;20047;-62
2023/07/27 01:39:59;;;;;;;9.40;4.88;;;;;;;17.83;100.00;100765.16;5061733;28;20055;-64
2023/07/27 01:42:28;;;;;;;8.32;5.10;;;;;;;17.82;100.00;100758.03;5096519;28;20433;-61
2023/07/27 01:44:57;;;;;;;10.70;5.32;;;;;;;17.81;100.00;100753.63;5114898;28;20054;-63
2023/07/27 01:47:26;;;;;;;8.38;4.57;;;;;;;17.78;100.00;100751.50;5063587;28;20047;-62
2023/07/27 01:49:54;;;;;;;8.50;4.57;;;;;;;17.77;100.00;100749.03;5096723;28;20118;-61
2023/07/27 01:52:22;;;;;;;7.72;4.20;;;;;;;17.77;100.00;100743.53;5094738;28;20048;-61
2023/07/27 01:54:52;;;;;;;8.93;4.95;;;;;;;17.77;100.00;100743.53;5096331;28;20588;-63
2023/07/27 01:57:20;;;;;;;8.30;4.45;;;;;;;17.74;100.00;100738.66;5114830;28;20039;-61
2023/07/27 01:59:48;;;;;;;7.65;4.90;;;;;;;17.73;100.00;100737.84;5043084;28;20040;-64
2023/07/27 02:02:16;;;;;;;9.45;5.20;;;;;;;17.69;100.00;100731.34;5075809;28;20047;-61
2023/07/27 02:04:44;;;;;;;8.43;4.85;;;;;;;17.68;100.00;100726.97;5086297;28;20048;-63
2023/07/27 02:07:11;;;;;;;10.05;5.20;;;;;;;17.67;100.00;100728.09;5080384;28;20054;-63
2023/07/27 02:09:39;;;;;;;8.82;5.05;;;;;;;17.66;100.00;100719.03;5098081;28;20051;-61
2023/07/27 02:12:14;;;;;;;8.45;5.07;;;;;;;17.60;100.00;100719.47;5096541;28;20043;-64
2023/07/27 02:15:05;;;;;;;9.93;5.35;;;;;;;17.57;100.00;100717.38;5080471;28;20042;-62
2023/07/27 02:17:44;;;;;;;8.60;4.80;;;;;;;17.55;100.00;100716.88;5079613;28;20058;-62
2023/07/27 02:20:14;;;;;;;9.27;4.75;;;;;;;17.54;100.00;100712.50;5095903;28;20040;-62
2023/07/27 02:22:42;;;;;;;10.18;4.82;;;;;;;17.54;100.00;100701.47;5114344;28;20050;-61
2023/07/27 02:25:10;;;;;;;9.30;5.00;;;;;;;17.53;100.00;100695.13;5079471;28;20488;-62
2023/07/27 02:27:39;;;;;;;8.43;4.95;;;;;;;17.48;100.00;100697.22;5062382;28;20045;-62
2023/07/27 02:30:07;;;;;;;11.43;5.22;;;;;;;17.43;100.00;100681.66;5096592;28;20049;-62
2023/07/27 02:32:35;;;;;;;8.10;5.20;;;;;;;17.38;100.00;100688.09;5095664;28;20036;-61
2023/07/27 02:35:03;;;;;;;10.65;5.47;;;;;;;17.39;100.00;100677.91;5096410;28;20048;-63
2023/07/27 02:37:31;;;;;;;10.57;5.63;;;;;;;17.35;100.00;100665.91;5081431;28;20043;-63
2023/07/27 02:39:59;;;;;;;11.82;5.82;;;;;;;17.30;100.00;100669.63;5123183;28;20051;-62
2023/07/27 02:42:27;;;;;;;12.10;5.97;;;;;;;17.24;100.00;100657.09;5108271;28;20119;-61
2023/07/27 02:44:55;;;;;;;9.98;5.43;;;;;;;17.24;100.00;100662.59;5096866;28;20111;-62
2023/07/27 02:47:23;;;;;;;8.52;5.15;;;;;;;17.25;100.00;100656.78;5098157;28;20434;-63
2023/07/27 02:49:51;;;;;;;11.15;6.30;;;;;;;17.27;100.00;100656.50;5107683;28;20043;-60
2023/07/27 02:52:19;;;;;;;10.63;5.85;;;;;;;17.27;100.00;100652.91;5109268;28;20067;-63
2023/07/27 02:54:47;;;;;;;10.27;5.70;;;;;;;17.25;100.00;100650.47;5104054;28;20047;-62
2023/07/27 02:57:18;;;;;;;10.70;5.55;;;;;;;17.24;100.00;100643.34;5071216;28;20094;-62
2023/07/27 02:59:49;;;;;;;9.82;5.20;;;;;;;17.24;100.00;100637.81;5076638;28;20044;-63
2023/07/27 03:02:17;;;;;;;9.70;5.60;;;;;;;17.22;100.00;100634.56;5059851;28;20556;-62
2023/07/27 03:04:45;;;;;;;7.80;4.78;;;;;;;17.23;100.00;100625.19;5079856;28;20078;-61
2023/07/27 03:07:13;;;;;;;12.27;4.90;;;;;;;17.23;100.00;100627.94;5095921;28;20051;-65
2023/07/27 03:09:41;;;;;;;7.80;4.78;;;;;;;17.23;100.00;100625.19;5095932;28;20096;-61
2023/07/27 03:12:09;;;;;;;8.70;5.00;;;;;;;17.23;100.00;100626.00;5095785;28;20110;-62
2023/07/27 03:14:37;;;;;;;9.45;5.35;;;;;;;17.24;100.00;100627.66;5095956;28;20406;-63
2023/07/27 03:17:05;;;;;;;9.95;5.68;;;;;;;17.26;100.00;100624.56;5096052;28;20054;-62
2023/07/27 03:19:33;;;;;;;9.82;5.70;;;;;;;17.21;100.00;100610.94;5099636;28;20051;-62
2023/07/27 03:22:01;;;;;;;12.63;5.78;;;;;;;17.16;100.00;100605.56;5094520;28;20040;-62
2023/07/27 03:24:28;;;;;;;9.00;5.28;;;;;;;17.14;100.00;100600.38;5081377;28;20040;-63
2023/07/27 03:26:56;;;;;;;7.93;4.28;;;;;;;17.16;100.00;100587.09;5099303;28;20077;-63
2023/07/27 03:29:24;;;;;;;12.05;5.07;;;;;;;17.18;100.00;100586.78;5081438;28;20096;-63
2023/07/27 03:31:52;;;;;;;11.38;5.28;;;;;;;17.18;100.00;100581.28;5117844;28;20051;-61
2023/07/27 03:34:21;;;;;;;9.20;5.20;;;;;;;17.15;100.00;100580.00;5099602;28;20055;-64
2023/07/27 03:36:48;;;;;;;9.13;4.68;;;;;;;17.15;100.00;100570.91;5097674;28;20506;-63
2023/07/27 03:39:17;;;;;;;8.88;5.15;;;;;;;17.11;100.00;100554.22;5099022;28;20055;-63
2023/07/27 03:41:46;;;;;;;9.10;5.15;;;;;;;17.08;100.00;100543.00;5098992;28;20056;-62
2023/07/27 03:44:14;;;;;;;10.32;5.05;;;;;;;17.04;100.00;100529.91;5117236;28;20449;-63
2023/07/27 03:46:42;;;;;;;10.82;5.72;;;;;;;17.02;100.00;100525.84;5098274;28;20046;-62
2023/07/27 03:49:10;;;;;;;9.63;5.60;;;;;;;17.00;100.00;100531.69;5098371;28;20047;-63
2023/07/27 03:51:38;;;;;;;9.73;5.78;;;;;;;17.00;100.00;100528.09;5098872;28;20042;-63
2023/07/27 03:54:06;;;;;;;9.57;5.50;;;;;;;16.99;100.00;100532.78;5099250;28;20035;-63
2023/07/27 03:56:37;;;;;;;9.90;5.53;;;;;;;16.99;100.00;100521.78;5089662;28;20039;-66
2023/07/27 03:59:05;;;;;;;11.82;5.10;;;;;;;16.98;100.00;100520.19;5096627;28;20048;-64
2023/07/27 04:01:33;;;;;;;10.00;5.47;;;;;;;16.98;100.00;100506.41;5099200;28;20100;-63
2023/07/27 04:04:01;;;;;;;9.02;5.10;;;;;;;16.96;100.00;100505.13;5098935;28;20046;-62
2023/07/27 04:06:29;;;;;;;11.18;5.25;;;;;;;16.91;100.00;100491.47;5115272;28;20046;-65
2023/07/27 04:08:58;;;;;;;11.05;5.72;;;;;;;16.86;100.00;100500.72;5076874;28;20090;-62
2023/07/27 04:11:26;;;;;;;9.23;5.40;;;;;;;16.85;100.00;100499.06;5094443;28;20054;-63
2023/07/27 04:13:54;;;;;;;9.38;4.90;;;;;;;16.84;100.00;100497.47;5095509;28;20055;-62
2023/07/27 04:16:21;;;;;;;9.23;5.63;;;;;;;16.79;100.00;100487.41;5095963;28;20044;-64
2023/07/27 04:18:49;;;;;;;9.13;5.22;;;;;;;16.74;100.00;100492.19;5103266;28;20051;-62
2023/07/27 04:21:17;;;;;;;10.98;5.07;;;;;;;16.74;100.00;100486.69;5109938;28;20038;-62
2023/07/27 04:23:45;;;;;;;8.63;4.97;;;;;;;16.74;100.00;100486.69;5094858;28;20048;-63
2023/07/27 04:26:13;;;;;;;8.32;4.53;;;;;;;16.79;100.00;100483.84;5083008;28;20372;-64
2023/07/27 04:28:40;;;;;;;8.00;4.38;;;;;;;16.74;100.00;100481.19;5114449;28;20048;-63
2023/07/27 04:31:09;;;;;;;7.28;4.25;;;;;;;16.72;100.00;100478.78;5095135;28;20480;-63
2023/07/27 04:33:36;;;;;;;8.32;4.60;;;;;;;16.69;100.00;100468.41;5094436;28;20113;-61
2023/07/27 04:36:04;;;;;;;11.65;4.07;;;;;;;16.63;100.00;100463.34;5114536;28;20043;-62
2023/07/27 04:38:32;;;;;;;7.10;3.85;;;;;;;16.59;100.00;100463.97;5115080;28;20039;-63
2023/07/27 04:41:00;;;;;;;7.90;4.40;;;;;;;16.61;100.00;100450.72;5113324;28;20067;-64
2023/07/27 04:43:28;;;;;;;8.48;4.20;;;;;;;16.60;100.00;100460.13;5114847;28;20047;-63
2023/07/27 04:45:56;;;;;;;8.05;4.18;;;;;;;16.64;100.00;100451.22;5114347;28;20380;-63
2023/07/27 04:48:23;;;;;;;7.68;3.85;;;;;;;16.66;100.00;100448.97;5116132;28;20048;-63
2023/07/27 04:50:51;;;;;;;9.15;3.97;;;;;;;16.64;100.00;100443.78;5107963;28;20051;-61
2023/07/27 04:53:22;;;;;;;6.88;3.88;;;;;;;16.64;100.00;100437.47;5116096;28;20047;-64
2023/07/27 04:55:50;;;;;;;6.68;3.70;;;;;;;16.72;100.00;100444.94;5114407;28;20047;-63
2023/07/27 04:58:17;;;;;;;5.20;3.20;;;;;;;16.73;100.00;100435.56;5116039;28;20054;-63
2023/07/27 05:00:50;;;;;;;6.43;3.60;;;;;;;16.76;100.00;100429.41;5114534;28;20039;-63
2023/07/27 05:03:18;;;;;;;6.30;3.30;;;;;;;16.80;100.00;100425.72;5115310;28;20047;-63
2023/07/27 05:05:46;;;;;;;5.75;3.25;;;;;;;16.82;100.00;100425.41;5115523;28;20055;-62
2023/07/27 05:08:14;;;;;;;5.78;3.50;;;;;;;16.80;100.00;100420.22;5114255;28;20046;-64
2023/07/27 05:10:42;;;;;;;6.10;3.60;;;;;;;16.77;100.00;100418.09;5108373;28;20518;-65
2023/07/27 05:13:09;;;;;;;7.22;3.28;;;;;;;16.79;100.00;100417.81;5080199;28;20444;-62
2023/07/27 05:15:40;;;;;;;6.30;3.20;;;;;;;16.79;100.00;100417.81;5113827;28;20043;-64
2023/07/27 05:18:09;;;;;;;4.88;3.25;;;;;;;16.89;100.00;100412.00;5116367;28;20047;-63
2023/07/27 05:20:50;;;;;;;4.93;2.83;;;;;;;16.91;100.00;100412.50;5120265;28;20035;-63
2023/07/27 05:23:18;;;;;;;6.53;2.90;;;;;;;16.93;100.00;100401.97;5106677;28;20059;-62
2023/07/27 05:25:47;;;;;;;6.90;3.65;;;;;;;16.87;100.00;100406.00;5102253;28;20048;-62
2023/07/27 05:28:15;;;;;;;5.03;3.22;;;;;;;16.88;100.00;100396.59;5099100;28;20048;-62
2023/07/27 05:30:43;;;;;;;4.78;3.25;;;;;;;16.89;100.00;100391.94;5077149;28;20054;-62
2023/07/27 05:33:11;;;;;;;5.78;2.97;;;;;;;16.85;100.00;100382.69;5093826;28;20071;-62
2023/07/27 05:35:39;;;;;;;6.88;3.30;;;;;;;16.92;100.00;100394.84;5103761;28;20047;-63
2023/07/27 05:38:07;;;;;;;5.20;3.10;;;;;;;16.90;100.00;100383.34;5098143;28;20047;-61
2023/07/27 05:40:37;;;;;;;5.55;2.90;;;;;;;16.83;100.00;100388.50;5116198;28;20128;-63
2023/07/27 05:43:05;;;;;;;3.95;2.70;;;;;;;16.99;100.00;100384.16;5121449;28;20047;-62
2023/07/27 05:45:33;;;;;;;6.18;3.10;;;;;;;17.07;100.00;100385.31;5099060;28;20043;-64
2023/07/27 05:48:01;;;;;;;4.78;2.72;;;;;;;17.00;100.00;100385.81;5118512;28;20152;-62
2023/07/27 05:50:29;;;;;;;4.65;2.97;;;;;;;16.95;100.00;100374.94;5114701;28;20039;-64
2023/07/27 05:52:56;;;;;;;5.53;2.70;;;;;;;16.97;100.00;100378.16;5083931;28;20047;-64
2023/07/27 05:55:24;;;;;;;7.68;3.00;;;;;;;17.07;100.00;100370.75;5095372;28;20488;-64
2023/07/27 05:57:52;;;;;;;4.35;2.55;;;;;;;17.00;100.00;100372.03;5085392;28;20492;-63
2023/07/27 06:00:20;;;;;;;4.38;2.72;;;;;;;17.04;100.00;100373.00;5096187;28;20044;-62
2023/07/27 06:02:54;;;;;;;5.50;2.80;;;;;;;17.07;100.00;100368.00;5114207;28;20044;-64
2023/07/27 06:05:22;;;;;;;6.32;2.70;;;;;;;17.16;100.00;100368.81;5111118;28;20044;-63
2023/07/27 06:07:50;;;;;;;4.22;2.63;;;;;;;17.12;100.00;100365.06;5105342;28;20043;-64
2023/07/27 06:10:18;;;;;;;3.53;2.35;;;;;;;17.16;100.00;100369.59;5114344;28;20095;-62
2023/07/27 06:12:46;;;;;;;5.15;2.70;;;;;;;17.14;100.00;100369.13;5112775;28;20159;-61
2023/07/27 06:15:13;;;;;;;4.65;2.78;;;;;;;17.11;100.00;100363.47;4757129;28;9999937;-64
2023/07/27 06:17:41;;;;;;;7.25;2.50;;;;;;;17.11;100.00;100353.25;5107588;28;20051;-63
2023/07/27 06:20:09;;;;;;;3.60;2.30;;;;;;;17.11;100.00;100357.97;5092096;28;20510;-61
2023/07/27 06:22:37;;;;;;;3.95;2.40;;;;;;;17.01;100.00;100357.13;5109341;28;20107;-62
2023/07/27 06:25:05;;;;;;;3.75;2.53;;;;;;;17.06;100.00;100360.88;5078673;28;20406;-64
2023/07/27 06:27:33;;;;;;;4.20;2.30;;;;;;;17.04;100.00;100350.97;5095315;28;20062;-63
2023/07/27 06:30:00;;;;;;;3.00;2.22;;;;;;;17.04;100.00;100353.72;5110480;28;20060;-66
2023/07/27 06:32:28;;;;;;;3.53;2.15;;;;;;;17.16;100.00;100352.28;5110332;28;20052;-65
2023/07/27 06:34:56;;;;;;;4.20;2.42;;;;;;;17.17;100.00;100357.47;5076789;28;20117;-66
2023/07/27 06:37:24;;;;;;;2.65;2.30;;;;;;;17.12;100.00;100349.34;5071893;28;20100;-65
2023/07/27 06:39:52;;;;;;;4.00;2.38;;;;;;;17.11;100.00;100349.69;5101859;28;20452;-63
2023/07/27 06:42:22;;;;;;;4.28;2.45;;;;;;;17.06;100.00;100347.13;5089982;28;20508;-65
2023/07/27 06:44:49;;;;;;;5.38;2.30;;;;;;;17.13;100.00;100344.69;5108388;28;20048;-63
2023/07/27 06:47:17;;;;;;;5.68;2.25;;;;;;;17.24;100.00;100340.44;5106155;28;20403;-63
2023/07/27 06:49:45;;;;;;;3.85;2.58;;;;;;;17.25;100.00;100333.81;5110589;28;20047;-63
2023/07/27 06:52:13;;;;;;;6.03;2.22;;;;;;;17.21;100.00;100341.09;5113298;28;20061;-62
2023/07/27 06:54:40;;;;;;;3.67;2.03;;;;;;;17.23;100.00;100333.34;5113940;28;20043;-61
2023/07/27 06:57:10;;;;;;;4.35;2.05;;;;;;;17.18;100.00;100330.75;5101295;28;20059;-63
2023/07/27 06:59:38;;;;;;;2.90;2.00;;;;;;;17.18;100.00;100328.00;5116228;28;20043;-62
2023/07/27 07:02:07;;;;;;;2.63;1.90;;;;;;;17.22;100.00;100334.47;5116220;28;20047;-63
2023/07/27 07:04:35;;;;;;;2.80;1.90;;;;;;;17.20;100.00;100332.03;5127904;28;20095;-62
2023/07/27 07:07:07;;;;;;;3.67;2.13;;;;;;;17.27;100.00;100337.06;5133029;28;20470;-61
2023/07/27 07:09:35;;;;;;;2.22;2.03;;;;;;;17.27;100.00;100342.56;5125803;28;20043;-63
2023/07/27 07:12:04;;;;;;;2.65;1.98;;;;;;;17.27;100.00;100331.56;5112638;28;20048;-62
2023/07/27 07:14:33;;;;;;;3.15;1.80;;;;;;;17.32;100.00;100334.16;5127107;28;20040;-64
2023/07/27 07:17:01;;;;;;;3.22;2.00;;;;;;;17.27;100.00;100337.06;5130854;28;20076;-62
2023/07/27 07:19:29;;;;;;;2.47;1.90;;;;;;;17.39;100.00;100326.19;5128293;28;20103;-61
2023/07/27 07:21:57;;;;;;;2.25;1.83;;;;;;;17.46;100.00;100326.50;5116134;28;20055;-62
2023/07/27 07:24:26;;;;;;;2.50;1.70;;;;;;;17.58;100.00;100333.28;5110486;28;20040;-62
2023/07/27 07:26:55;;;;;;;2.90;1.73;;;;;;;17.56;100.00;100330.88;5106370;28;20505;-64
2023/07/27 07:29:23;;;;;;;3.25;2.15;;;;;;;17.51;100.00;100333.81;5115865;28;20051;-63
2023/07/27 07:31:51;;;;;;;5.97;2.55;;;;;;;17.48;100.00;100323.41;5098918;28;20488;-61
2023/07/27 07:34:19;;;;;;;5.68;2.40;;;;;;;17.38;100.00;100324.56;5133366;27;20059;-64
2023/07/27 07:36:47;;;;;;;16.02;4.90;;;;;;;17.32;100.00;100323.13;5115930;28;20524;-62
2023/07/27 07:39:14;;;;;;;17.27;5.55;;;;;;;17.37;100.00;100317.44;5117063;28;20044;-62
2023/07/27 07:41:42;;;;;;;9.52;3.72;;;;;;;17.39;100.00;100317.09;5115073;28;20522;-63
2023/07/27 07:44:10;;;;;;;17.08;4.28;;;;;;;17.41;100.00;100310.16;5117098;28;20051;-63
2023/07/27 07:46:38;;;;;;;13.23;3.65;;;;;;;17.38;100.00;100307.25;5115507;28;20046;-62
2023/07/27 07:49:06;;;;;;;14.02;3.63;;;;;;;17.43;100.00;100302.34;5113455;28;20066;-63
2023/07/27 07:51:33;;;;;;;8.95;3.45;;;;;;;17.39;100.00;100304.16;5114731;28;20062;-64
2023/07/27 07:54:01;;;;;;;12.25;3.67;;;;;;;17.36;100.00;100299.28;5114134;28;20050;-65
2023/07/27 07:56:29;;;;;;;9.02;3.03;;;;;;;17.34;100.00;100301.59;5115138;28;20047;-65
2023/07/27 07:58:57;;;;;;;9.60;3.17;;;;;;;17.32;100.00;100303.03;5113895;28;20051;-64
2023/07/27 08:01:24;;;;;;;3.85;2.38;;;;;;;17.35;100.00;100300.44;5114686;28;20118;-64
2023/07/27 08:03:52;;;;;;;4.63;2.53;;;;;;;17.34;100.00;100307.09;5116114;28;20048;-64
2023/07/27 08:06:24;;;;;;;4.75;2.58;;;;;;;17.33;100.00;100294.44;5115739;28;20051;-63
2023/07/27 08:08:52;;;;;;;3.78;2.45;;;;;;;17.31;100.00;100293.97;5116660;28;20039;-63
2023/07/27 08:11:20;;;;;;;14.48;4.47;;;;;;;17.30;100.00;100281.34;5114388;28;20047;-62
2023/07/27 08:13:47;;;;;;;6.90;3.20;;;;;;;17.32;100.00;100292.00;5097837;28;20442;-62
2023/07/27 08:16:16;;;;;;;9.20;3.30;;;;;;;17.39;100.00;100293.16;5100419;28;20051;-62
2023/07/27 08:18:44;;;;;;;5.45;2.40;;;;;;;17.40;100.00;100286.50;5114785;28;20035;-61
2023/07/27 08:21:12;;;;;;;3.63;2.03;;;;;;;17.40;100.00;100294.75;5115388;28;20040;-62
2023/07/27 08:23:40;;;;;;;4.22;2.33;;;;;;;17.52;100.00;100296.84;5113983;28;20077;-61
2023/07/27 08:26:09;;;;;;;3.70;2.30;;;;;;;17.55;100.00;100287.13;5113310;28;20044;-65
2023/07/27 08:28:37;;;;;;;3.45;2.17;;;;;;;17.57;100.00;100293.91;5098439;28;20040;-62
2023/07/27 08:31:05;;;;;;;3.50;2.63;;;;;;;17.55;100.00;100290.66;5114682;28;20050;-63
2023/07/27 08:33:33;;;;;;;4.95;2.55;;;;;;;17.59;100.00;100290.84;5108754;28;20043;-62
2023/07/27 08:36:01;;;;;;;6.40;2.17;;;;;;;17.61;100.00;100283.06;5115978;28;20048;-64
2023/07/27 08:38:29;;;;;;;3.25;2.17;;;;;;;17.67;100.00;100287.25;5105199;28;20048;-65
2023/07/27 08:40:59;;;;;;;4.50;2.20;;;;;;;17.64;100.00;100282.41;5114165;28;20431;-63
2023/07/27 08:43:28;;;;;;;4.35;2.15;;;;;;;17.65;100.00;100272.97;5115347;28;20406;-62
2023/07/27 08:45:56;;;;;;;2.90;2.03;;;;;;;17.71;100.00;100277.19;5112742;28;20044;-63
2023/07/27 08:48:24;;;;;;;3.55;1.90;;;;;;;17.66;100.00;100272.66;5110712;28;20396;-64
2023/07/27 08:50:53;;;;;;;2.55;1.92;;;;;;;17.66;100.00;100274.63;5112057;28;20051;-62
2023/07/27 08:53:21;;;;;;;4.05;2.30;;;;;;;17.63;100.00;100275.25;5112773;28;20051;-65
2023/07/27 08:55:49;;;;;;;3.45;2.10;;;;;;;17.63;100.00;100269.75;5108228;28;20044;-62
2023/07/27 08:58:17;;;;;;;5.35;2.30;;;;;;;17.72;100.00;100267.75;5114892;28;20054;-63
2023/07/27 09:00:44;;;;;;;2.83;1.73;;;;;;;17.74;100.00;100267.44;5111833;28;20054;-64
2023/07/27 09:03:13;;;;;;;3.65;1.80;;;;;;;17.77;100.00;100272.28;5113614;28;20051;-62
2023/07/27 09:05:42;;;;;;;1.85;1.75;;;;;;;17.79;100.00;100275.53;5111328;28;20047;-62
2023/07/27 09:08:13;;;;;;;2.03;1.83;;;;;;;17.80;100.00;100274.41;5115503;28;20506;-62
2023/07/27 09:10:43;;;;;;;2.75;1.98;;;;;;;17.78;100.00;100277.47;5110336;28;20055;-64
2023/07/27 09:13:10;;;;;;;2.75;2.25;;;;;;;17.74;100.00;100276.53;5109261;28;20126;-66
2023/07/27 09:15:45;;;;;;;11.10;1.90;;;;;;;17.72;100.00;100276.03;5093085;28;20102;-62
2023/07/27 09:18:14;;;;;;;4.72;1.85;;;;;;;17.71;100.00;100273.63;5114445;28;20056;-64
2023/07/27 09:20:43;;;;;;;2.00;1.75;;;;;;;17.67;100.00;100277.03;5097478;28;20047;-62
2023/07/27 09:23:19;;;;;;;2.45;1.40;;;;;;;17.66;100.00;100280.13;5115012;28;20042;-62
2023/07/27 09:25:56;;;;;;;;;;;;;;;17.74;100.00;100272.97;5115472;28;20040;-63
2023/07/27 09:28:25;;;;;;;3.03;1.70;;;;;;;17.73;100.00;100274.91;5111287;28;19924;-64
2023/07/27 09:30:59;;;;;;;3.50;1.70;;;;;;;17.71;100.00;100277.19;5094007;28;20519;-64
2023/07/27 09:33:27;;;;;;;2.78;1.70;;;;;;;17.72;100.00;100264.22;5105342;28;20051;-62
2023/07/27 09:35:56;;;;;;;2.10;1.90;;;;;;;17.71;100.00;100263.41;5099860;28;20050;-63
2023/07/27 09:38:27;;;;;;;1.90;1.33;;;;;;;17.74;100.00;100265.50;5100355;28;20138;-62
2023/07/27 09:40:55;;;;;;;4.50;1.65;;;;;;;17.78;100.00;100265.66;5079144;28;20051;-64
2023/07/27 09:43:26;;;;;;;3.25;1.95;;;;;;;17.83;100.00;100274.56;5096878;28;20056;-63
2023/07/27 09:46:00;;;;;;;3.10;1.88;;;;;;;17.84;100.00;100265.16;5114225;28;20052;-64
2023/07/27 09:48:28;;;;;;;1.70;1.60;;;;;;;17.84;100.00;100265.16;5102407;28;20097;-64
2023/07/27 09:50:59;;;;;;;4.03;1.75;;;;;;;17.86;100.00;100273.91;5086767;28;20091;-63
2023/07/27 09:53:32;;;;;;;2.67;2.03;;;;;;;17.95;100.00;100271.13;5094142;28;20044;-63
2023/07/27 09:56:00;;;;;;;1.98;1.52;;;;;;;17.93;100.00;100264.31;5096380;28;20044;-64
2023/07/27 09:58:29;;;;;;;2.33;1.40;;;;;;;17.90;100.00;100267.75;5079497;28;20402;-64
2023/07/27 10:00:58;;;;;;;2.78;1.75;;;;;;;17.95;100.00;100267.56;5092023;28;20060;-62
2023/07/27 10:03:26;;;;;;;2.92;1.90;;;;;;;17.92;100.00;100271.78;5101442;28;20043;-64
2023/07/27 10:05:55;;;;;;;3.08;1.85;;;;;;;17.90;100.00;100276.03;5094261;28;20065;-66
2023/07/27 10:08:23;;;;;;;2.75;2.28;;;;;;;17.87;100.00;100277.47;5093543;28;20062;-63
2023/07/27 10:10:55;;;;;;;3.50;2.10;;;;;;;17.86;100.00;100273.91;5106831;28;20050;-67
2023/07/27 10:13:22;;;;;;;5.50;3.40;;;;;;;17.86;100.00;100265.63;5075683;28;20509;-62
2023/07/27 10:15:53;;;;;;;4.68;2.60;;;;;;;17.86;100.00;100268.38;5088286;28;20031;-64
2023/07/27 10:18:27;;;;;;;5.97;3.72;;;;;;;17.85;100.00;100269.53;5087563;28;20044;-61
2023/07/27 10:20:58;;;;;;;10.00;5.25;;;;;;;17.83;100.00;100271.81;5083315;28;20050;-62
2023/07/27 10:23:31;;;;;;;33.88;18.80;;;;;;;17.85;100.00;100272.31;5080061;28;20052;-62
2023/07/27 10:25:59;;;;;;;5.28;2.83;;;;;;;17.91;100.00;100269.34;5097601;28;20105;-63
2023/07/27 10:28:43;;;;;;;6.05;2.83;;;;;;;17.96;100.00;100271.94;5093983;28;20044;-63
2023/07/27 10:31:23;;;;;;;6.32;3.40;;;;;;;17.97;100.00;100273.56;4383487;28;10000704;-64
2023/07/27 10:34:05;;;;;;;16.73;9.13;;;;;;;17.98;100.00;100270.44;5107170;28;20043;-63
2023/07/27 10:36:57;;;;;;;9.25;5.70;;;;;;;18.12;100.00;100273.00;5087889;28;20711;-63
2023/07/27 10:39:37;;;;;;;9.73;5.57;;;;;;;18.07;100.00;100268.47;5099089;28;20073;-63
2023/07/27 10:42:05;;;;;;;3.33;1.98;;;;;;;18.06;100.00;100266.88;5110114;28;20066;-64
2023/07/27 10:44:43;;;;;;;6.00;3.17;;;;;;;18.09;100.00;100270.91;5105960;28;20951;-62
2023/07/27 10:47:16;;;;;;;17.73;9.73;;;;;;;18.13;100.00;100263.56;5092386;28;20096;-61
2023/07/27 10:49:48;;;;;;;9.55;5.07;;;;;;;18.14;100.00;100262.44;5110825;28;20139;-64
2023/07/27 10:52:21;;;;;;;23.38;12.68;;;;;;;18.15;100.00;100269.56;5092517;28;20502;-64
2023/07/27 10:54:50;;;;;;;3.90;2.05;;;;;;;18.19;100.00;100273.28;5092489;28;20051;-63
2023/07/27 10:57:19;;;;;;;31.25;15.90;;;;;;;18.19;100.00;100269.72;5054470;28;20067;-64
2023/07/27 10:59:51;;;;;;;17.08;9.68;;;;;;;18.21;100.00;100271.00;5100772;28;20090;-62
2023/07/27 11:02:21;;;;;;;9.30;5.50;;;;;;;18.25;100.00;100269.16;5109069;28;20052;-63
2023/07/27 11:04:52;;;;;;;18.35;9.73;;;;;;;18.25;100.00;100266.41;5081765;28;20040;-64
2023/07/27 11:07:37;;;;;;;3.15;2.30;;;;;;;18.26;100.00;100273.56;5108720;28;20047;-63
2023/07/27 11:10:09;;;;;;;5.47;2.85;;;;;;;18.33;100.00;100264.75;5094579;28;20047;-63
2023/07/27 11:12:53;;;;;;;24.85;13.63;;;;;;;18.38;100.00;100264.56;5072526;28;20397;-62
2023/07/27 11:15:29;;;;;;;7.13;3.65;;;;;;;18.42;100.00;100261.94;5089810;28;20048;-64
2023/07/27 11:17:59;;;;;;;6.40;3.50;;;;;;;18.41;100.00;100257.56;5101082;28;20050;-63
2023/07/27 11:20:31;;;;;;;7.25;3.75;;;;;;;18.44;100.00;100256.91;5088434;28;20057;-64
2023/07/27 11:23:00;;;;;;;14.02;6.65;;;;;;;18.42;100.00;100257.22;5110790;28;20055;-63
2023/07/27 11:25:34;;;;;;;17.08;9.80;;;;;;;18.55;100.00;100247.09;5080680;28;20440;-62
2023/07/27 11:28:03;;;;;;;6.68;4.15;;;;;;;18.62;100.00;100249.31;5113519;28;20054;-62